KDHN/DHN METAR and TAF weather

Enter ICAO airport designator
Station Type Date Time Source
KDHN METAR 2021/07/29 02:53 UTC NOAA

KDHN 290253Z AUTO 00000KT 10SM FEW042 24/24 A3007 RMK AO2 SLP176 T02440239 53018


Station Type Date Time Source
KDHN Decoded METAR 2021/07/29 02:53 UTC NOAA

DOTHAN AIRPORT, AL, United States (KDHN) 31-19N 085-27W 113M
Jul 28, 2021 - 10:53 PM EDT / 2021.07.29 0253 UTC
Wind: Calm:0
Visibility: 10 mile(s):0
Sky conditions: mostly clear
Temperature: 75.9 F (24.4 C)
Dew Point: 75.0 F (23.9 C)
Relative Humidity: 97%
Pressure (altimeter): 30.07 in. Hg (1018 hPa)
Pressure tendency: 0.05 inches (1.8 hPa) higher than three hours ago
ob: KDHN 290253Z AUTO 00000KT 10SM FEW042 24/24 A3007 RMK AO2 SLP176 T02440239 53018
cycle: 3

Station Type Date Time Source
KDHN TAF 2021/07/28 18:22 UTC NOAA

TAF KDHN 281720Z 2818/2918 23003KT P6SM SCT040 BKN100 BKN120
FM281900 27005KT 4SM SHRA VCTS BKN040CB
TEMPO 2820/2824 VRB15G25KT 2SM TSRA
FM290200 VRB03KT P6SM BKN250
FM290900 31002KT 5SM BR BKN250
FM291500 33002KT P6SM SKC

Example: see airport list